createdAt,value
2017-10-08T00:00:47.314Z,11.30
2017-10-08T00:03:16.371Z,11.40
2017-10-08T00:05:45.478Z,11.30
2017-10-08T00:08:13.755Z,11.40
2017-10-08T00:10:41.996Z,11.40
2017-10-08T00:13:11.020Z,11.40
2017-10-08T00:15:39.258Z,11.40
2017-10-08T00:18:08.290Z,11.40
2017-10-08T00:20:36.533Z,11.40
2017-10-08T00:23:06.306Z,11.50
2017-10-08T00:25:34.556Z,11.40
2017-10-08T00:28:03.590Z,11.40
2017-10-08T00:30:31.840Z,11.40
2017-10-08T00:33:00.079Z,11.40
2017-10-08T00:35:28.347Z,11.50
2017-10-08T00:37:56.609Z,11.50
2017-10-08T00:40:24.870Z,11.60
2017-10-08T00:42:53.119Z,11.50
2017-10-08T00:45:22.138Z,11.40
2017-10-08T00:47:50.441Z,11.40
2017-10-08T00:50:18.701Z,11.40
2017-10-08T00:52:47.010Z,11.40
2017-10-08T00:55:15.285Z,11.40
2017-10-08T00:57:43.562Z,11.40
2017-10-08T01:00:11.845Z,11.30
2017-10-08T01:02:40.083Z,11.40
2017-10-08T01:05:09.105Z,11.50
2017-10-08T01:07:37.410Z,11.50
2017-10-08T01:10:05.705Z,11.60
2017-10-08T01:12:33.976Z,11.60
2017-10-08T01:15:02.251Z,11.60
2017-10-08T01:17:30.529Z,11.70
2017-10-08T01:19:58.803Z,11.70
2017-10-08T01:22:27.057Z,11.70
2017-10-08T01:24:55.402Z,11.70
2017-10-08T01:27:23.676Z,11.70
2017-10-08T01:29:51.971Z,11.70
2017-10-08T01:32:20.279Z,11.60
2017-10-08T01:34:49.521Z,11.60
2017-10-08T01:37:17.812Z,11.60
2017-10-08T01:39:46.085Z,11.60
2017-10-08T01:42:14.356Z,11.60
2017-10-08T01:44:42.655Z,11.60
2017-10-08T01:47:10.926Z,11.70
2017-10-08T01:49:39.214Z,11.60
2017-10-08T01:52:07.470Z,11.70
2017-10-08T01:54:35.783Z,11.70
2017-10-08T01:57:04.060Z,11.70
2017-10-08T01:59:32.349Z,11.70
2017-10-08T02:02:00.621Z,11.70
2017-10-08T02:04:28.872Z,11.70
2017-10-08T02:06:57.912Z,11.70
2017-10-08T02:09:26.139Z,11.70
2017-10-08T02:11:55.174Z,11.60
2017-10-08T02:14:23.417Z,11.60
2017-10-08T02:16:52.458Z,11.70
2017-10-08T02:19:20.744Z,11.70
2017-10-08T02:21:49.023Z,11.70
2017-10-08T02:24:17.275Z,11.80
2017-10-08T02:26:45.530Z,11.70
2017-10-08T02:29:14.580Z,11.80
2017-10-08T02:31:42.861Z,11.80
2017-10-08T02:34:11.111Z,11.80
2017-10-08T02:36:40.242Z,11.80
2017-10-08T02:39:08.526Z,11.80
2017-10-08T02:41:36.815Z,11.80
2017-10-08T02:44:05.086Z,11.90
2017-10-08T02:46:33.351Z,11.80
2017-10-08T02:49:01.654Z,11.90
2017-10-08T02:51:30.038Z,11.90
2017-10-08T02:53:58.287Z,11.90
2017-10-08T02:56:26.526Z,11.90
2017-10-08T02:58:54.873Z,11.80
2017-10-08T03:01:23.117Z,11.90
2017-10-08T03:03:51.386Z,11.90
2017-10-08T03:06:19.710Z,11.90
2017-10-08T03:08:47.977Z,11.80
2017-10-08T03:11:16.222Z,11.90
2017-10-08T03:13:44.551Z,11.90
2017-10-08T03:16:12.789Z,11.90
2017-10-08T03:18:41.818Z,11.90
2017-10-08T03:21:10.067Z,11.90
2017-10-08T03:23:39.086Z,11.90
2017-10-08T03:26:07.340Z,11.90
2017-10-08T03:28:35.599Z,11.90
2017-10-08T03:31:03.848Z,11.90
2017-10-08T03:33:32.098Z,11.90
2017-10-08T03:36:01.111Z,12.00
2017-10-08T03:38:29.370Z,11.90
2017-10-08T03:40:58.415Z,11.90
2017-10-08T03:43:26.692Z,11.90
2017-10-08T03:45:54.970Z,11.90
2017-10-08T03:48:23.230Z,11.90
2017-10-08T03:50:51.474Z,11.90
2017-10-08T03:53:19.819Z,11.90
2017-10-08T03:55:48.066Z,12.00
2017-10-08T03:58:17.099Z,12.00
2017-10-08T04:00:45.338Z,12.00
2017-10-08T04:03:14.372Z,12.00
2017-10-08T04:05:42.609Z,12.00
2017-10-08T04:08:12.150Z,12.10
2017-10-08T04:10:40.414Z,12.10
2017-10-08T04:13:09.418Z,12.10
2017-10-08T04:15:37.680Z,12.10
2017-10-08T04:18:06.697Z,12.10
2017-10-08T04:20:34.954Z,12.10
2017-10-08T04:23:03.972Z,12.10
2017-10-08T04:25:33.100Z,12.10
2017-10-08T04:28:01.378Z,12.10
2017-10-08T04:30:29.654Z,12.10
2017-10-08T04:32:57.936Z,12.10
2017-10-08T04:35:26.194Z,12.10
2017-10-08T04:37:54.498Z,12.10
2017-10-08T04:40:22.821Z,12.10
2017-10-08T04:42:51.042Z,12.10
2017-10-08T04:45:19.302Z,12.20
2017-10-08T04:47:48.318Z,12.10
2017-10-08T04:50:16.617Z,12.10
2017-10-08T04:52:44.867Z,12.20
2017-10-08T04:55:13.885Z,12.20
2017-10-08T04:57:42.238Z,12.20
2017-10-08T05:00:10.511Z,12.20
2017-10-08T05:02:38.763Z,12.20
2017-10-08T05:05:07.022Z,12.20
2017-10-08T05:07:35.310Z,12.20
2017-10-08T05:10:03.590Z,12.20
2017-10-08T05:12:31.830Z,12.20
2017-10-08T05:15:00.859Z,12.30
2017-10-08T05:17:29.192Z,12.30
2017-10-08T05:19:57.442Z,12.30
2017-10-08T05:22:25.698Z,12.30
2017-10-08T05:24:54.003Z,12.30
2017-10-08T05:27:22.279Z,12.30
2017-10-08T05:29:50.528Z,12.20
2017-10-08T05:32:20.278Z,12.10
2017-10-08T05:34:48.523Z,12.10
2017-10-08T05:37:17.551Z,12.10
2017-10-08T05:39:45.798Z,12.00
2017-10-08T05:42:14.822Z,12.00
2017-10-08T05:44:43.072Z,11.90
2017-10-08T05:47:12.128Z,11.90
2017-10-08T05:49:40.371Z,11.90
2017-10-08T05:52:08.633Z,12.00
2017-10-08T05:54:37.646Z,12.00
2017-10-08T05:57:06.667Z,12.00
2017-10-08T05:59:34.919Z,12.00
2017-10-08T06:02:03.938Z,12.10
2017-10-08T06:04:32.187Z,12.10
2017-10-08T06:07:01.239Z,12.20
2017-10-08T06:09:29.486Z,12.10
2017-10-08T06:11:57.799Z,12.20
2017-10-08T06:14:26.044Z,12.30
2017-10-08T06:16:55.074Z,12.50
2017-10-08T06:19:23.317Z,12.50
2017-10-08T06:21:52.365Z,12.50
2017-10-08T06:24:20.631Z,12.50
2017-10-08T06:26:48.879Z,12.60
2017-10-08T06:29:17.143Z,12.60
2017-10-08T06:31:46.153Z,12.70
2017-10-08T06:34:14.474Z,12.70
2017-10-08T06:36:42.745Z,12.80
2017-10-08T06:39:11.342Z,12.90
2017-10-08T06:41:39.589Z,13.00
2017-10-08T06:44:08.619Z,13.40
2017-10-08T06:46:36.938Z,13.30
2017-10-08T06:49:05.174Z,13.40
2017-10-08T06:51:33.459Z,13.40
2017-10-08T06:54:01.721Z,13.40
2017-10-08T06:56:30.025Z,13.40
2017-10-08T06:58:58.283Z,13.50
2017-10-08T07:01:26.629Z,13.50
2017-10-08T07:03:54.890Z,13.60
2017-10-08T07:06:23.253Z,13.60
2017-10-08T07:08:51.510Z,13.60
2017-10-08T07:11:20.287Z,13.70
2017-10-08T07:13:48.850Z,14.00
2017-10-08T07:16:17.857Z,14.40
2017-10-08T07:18:46.903Z,14.40
2017-10-08T07:21:15.146Z,14.40
2017-10-08T07:23:44.170Z,14.60
2017-10-08T07:26:12.438Z,14.60
2017-10-08T07:28:40.695Z,14.90
2017-10-08T07:31:09.700Z,16.20
2017-10-08T07:33:38.714Z,16.40
2017-10-08T07:36:06.984Z,16.40
2017-10-08T07:38:36.020Z,16.50
2017-10-08T07:41:04.259Z,16.40
2017-10-08T07:43:33.281Z,16.30
2017-10-08T07:46:01.566Z,16.30
2017-10-08T07:48:29.802Z,16.10
2017-10-08T07:50:58.851Z,16.00
2017-10-08T07:53:27.090Z,16.00
2017-10-08T07:55:56.118Z,16.00
2017-10-08T07:58:24.363Z,16.00
2017-10-08T08:00:53.389Z,16.00
2017-10-08T08:03:21.632Z,16.00
2017-10-08T08:05:50.662Z,16.70
2017-10-08T08:08:18.966Z,16.70
2017-10-08T08:10:47.225Z,16.70
2017-10-08T08:13:25.161Z,16.70
2017-10-08T08:15:53.441Z,16.60
2017-10-08T08:18:21.722Z,16.50
2017-10-08T08:20:49.984Z,16.50
2017-10-08T08:23:18.222Z,16.60
2017-10-08T08:25:46.487Z,16.60
2017-10-08T08:28:14.727Z,16.70
2017-10-08T08:30:43.019Z,17.10
2017-10-08T08:33:11.314Z,17.70
2017-10-08T08:35:39.619Z,17.90
2017-10-08T08:38:07.831Z,18.10
2017-10-08T08:40:36.854Z,18.00
2017-10-08T08:43:05.138Z,18.00
2017-10-08T08:45:33.439Z,17.90
2017-10-08T08:48:01.678Z,17.70
2017-10-08T08:50:30.798Z,17.30
2017-10-08T08:52:59.040Z,17.30
2017-10-08T08:55:28.213Z,17.20
2017-10-08T08:57:56.462Z,17.20
2017-10-08T09:00:24.701Z,17.50
2017-10-08T09:02:52.969Z,18.00
2017-10-08T09:05:21.209Z,18.30
2017-10-08T09:07:49.486Z,18.60
2017-10-08T09:10:17.729Z,18.40
2017-10-08T09:12:46.749Z,18.30
2017-10-08T09:15:15.006Z,18.30
2017-10-08T09:17:44.027Z,18.10
2017-10-08T09:20:12.271Z,18.00
2017-10-08T09:22:40.523Z,17.80
2017-10-08T09:25:08.787Z,17.40
2017-10-08T09:27:37.038Z,17.10
2017-10-08T09:30:06.042Z,17.00
2017-10-08T09:32:34.308Z,17.00
2017-10-08T09:35:03.314Z,16.90
2017-10-08T09:37:31.656Z,16.90
2017-10-08T09:39:59.940Z,17.00
2017-10-08T09:42:28.205Z,17.10
2017-10-08T09:44:56.567Z,17.10
2017-10-08T09:47:24.823Z,17.10
2017-10-08T09:49:53.846Z,17.00
2017-10-08T09:52:22.102Z,17.00
2017-10-08T09:54:51.107Z,17.20
2017-10-08T09:57:19.357Z,17.10
2017-10-08T09:59:47.736Z,17.30
2017-10-08T10:02:16.178Z,17.40
2017-10-08T10:04:46.493Z,17.50
2017-10-08T10:07:15.833Z,17.40
2017-10-08T10:09:44.073Z,17.30
2017-10-08T10:12:13.107Z,17.70
2017-10-08T10:14:41.338Z,17.70
2017-10-08T10:17:10.350Z,18.50
2017-10-08T10:19:39.370Z,18.90
2017-10-08T10:22:07.619Z,18.90
2017-10-08T10:24:36.866Z,19.10
2017-10-08T10:27:05.151Z,19.10
2017-10-08T10:29:33.402Z,18.70
2017-10-08T10:32:01.646Z,18.70
2017-10-08T10:34:31.416Z,18.40
2017-10-08T10:36:59.712Z,18.40
2017-10-08T10:39:27.983Z,18.40
2017-10-08T10:41:56.222Z,18.20
2017-10-08T10:44:24.550Z,18.10
2017-10-08T10:46:52.841Z,17.90
2017-10-08T10:49:21.114Z,17.80
2017-10-08T10:51:49.403Z,17.70
2017-10-08T10:54:17.674Z,17.60
2017-10-08T10:56:45.919Z,17.40
2017-10-08T10:59:15.069Z,17.30
2017-10-08T11:01:43.295Z,17.30
2017-10-08T11:04:12.331Z,17.30
2017-10-08T11:06:40.574Z,17.30
2017-10-08T11:09:09.642Z,17.40
2017-10-08T11:11:37.877Z,17.40
2017-10-08T11:14:06.135Z,17.70
2017-10-08T11:16:34.386Z,18.10
2017-10-08T11:19:02.661Z,18.50
2017-10-08T11:21:30.927Z,18.70
2017-10-08T11:23:59.175Z,18.90
2017-10-08T11:26:28.190Z,19.10
2017-10-08T11:28:56.447Z,19.10
2017-10-08T11:31:25.459Z,19.00
2017-10-08T11:33:53.702Z,19.00
2017-10-08T11:36:23.495Z,18.90
2017-10-08T11:38:51.730Z,18.90
2017-10-08T11:41:20.754Z,18.90
2017-10-08T11:43:49.525Z,18.90
2017-10-08T11:46:18.554Z,19.00
2017-10-08T11:48:46.833Z,19.00
2017-10-08T11:51:15.109Z,19.00
2017-10-08T11:53:43.353Z,19.00
2017-10-08T11:56:12.615Z,19.00
2017-10-08T11:58:40.903Z,19.00
2017-10-08T12:01:09.154Z,18.90
2017-10-08T12:03:37.389Z,18.90
2017-10-08T12:06:05.738Z,18.90
2017-10-08T12:08:33.976Z,18.90
2017-10-08T12:11:02.993Z,18.80
2017-10-08T12:13:31.245Z,18.80
2017-10-08T12:15:59.522Z,18.70
2017-10-08T12:18:28.525Z,18.80
2017-10-08T12:20:57.546Z,18.70
2017-10-08T12:23:25.798Z,18.70
2017-10-08T12:25:54.140Z,18.70
2017-10-08T12:28:22.413Z,18.70
2017-10-08T12:30:50.694Z,18.70
2017-10-08T12:33:18.931Z,18.70
2017-10-08T12:35:47.968Z,18.60
2017-10-08T12:38:16.233Z,18.60
2017-10-08T12:40:44.525Z,18.40
2017-10-08T12:43:12.779Z,18.10
2017-10-08T12:45:41.800Z,18.10
2017-10-08T12:48:10.058Z,18.10
2017-10-08T12:50:39.059Z,18.00
2017-10-08T12:53:08.083Z,18.00
2017-10-08T12:55:36.324Z,18.00
2017-10-08T12:58:04.650Z,18.00
2017-10-08T13:00:32.942Z,18.10
2017-10-08T13:03:01.195Z,18.00
2017-10-08T13:05:29.493Z,18.00
2017-10-08T13:07:57.747Z,17.90
2017-10-08T13:10:26.747Z,17.70
2017-10-08T13:12:55.775Z,17.70
2017-10-08T13:15:24.023Z,17.70
2017-10-08T13:17:53.043Z,17.70
2017-10-08T13:20:21.318Z,17.70
2017-10-08T13:22:49.592Z,17.70
2017-10-08T13:25:17.843Z,17.70
2017-10-08T13:27:46.889Z,18.00
2017-10-08T13:30:15.149Z,17.90
2017-10-08T13:32:43.415Z,17.70
2017-10-08T13:35:12.456Z,17.70
2017-10-08T13:37:40.714Z,17.70
2017-10-08T13:40:09.033Z,17.80
2017-10-08T13:42:37.326Z,17.80
2017-10-08T13:45:05.568Z,17.70
2017-10-08T13:47:33.900Z,17.70
2017-10-08T13:50:02.200Z,17.70
2017-10-08T13:52:30.646Z,17.70
2017-10-08T13:54:59.702Z,17.80
2017-10-08T13:57:27.946Z,17.80
2017-10-08T13:59:57.709Z,17.80
2017-10-08T14:02:26.020Z,17.80
2017-10-08T14:04:54.277Z,17.80
2017-10-08T14:07:22.565Z,17.90
2017-10-08T14:09:50.839Z,18.00
2017-10-08T14:12:19.134Z,17.80
2017-10-08T14:14:47.401Z,17.90
2017-10-08T14:17:15.653Z,17.80
2017-10-08T14:19:44.731Z,17.70
2017-10-08T14:22:12.968Z,17.70
2017-10-08T14:24:41.224Z,17.70
2017-10-08T14:27:10.227Z,17.70
2017-10-08T14:29:38.529Z,17.70
2017-10-08T14:32:06.767Z,17.70
2017-10-08T14:34:35.787Z,17.70
2017-10-08T14:37:04.036Z,17.70
2017-10-08T14:39:32.308Z,17.70
2017-10-08T14:42:00.548Z,17.60
2017-10-08T14:44:28.803Z,17.60
2017-10-08T14:46:57.111Z,17.50
2017-10-08T14:49:26.139Z,17.50
2017-10-08T14:51:54.385Z,17.40
2017-10-08T14:54:22.678Z,17.40
2017-10-08T14:56:50.917Z,17.30
2017-10-08T14:59:20.148Z,17.20
2017-10-08T15:01:48.411Z,17.20
2017-10-08T15:04:17.407Z,17.10
2017-10-08T15:06:45.662Z,17.10
2017-10-08T15:09:13.898Z,17.10
2017-10-08T15:11:42.154Z,17.10
2017-10-08T15:14:10.396Z,17.10
2017-10-08T15:16:38.699Z,16.90
2017-10-08T15:19:07.712Z,16.80
2017-10-08T15:21:36.736Z,16.70
2017-10-08T15:24:04.973Z,16.70
2017-10-08T15:26:34.194Z,16.70
2017-10-08T15:29:03.211Z,16.70
2017-10-08T15:31:31.466Z,16.60
2017-10-08T15:34:00.502Z,16.60
2017-10-08T15:36:28.763Z,16.60
2017-10-08T15:38:57.068Z,16.60
2017-10-08T15:41:25.588Z,16.60
2017-10-08T15:43:53.840Z,16.70
2017-10-08T15:46:22.113Z,16.70
2017-10-08T15:48:50.355Z,16.70
2017-10-08T15:51:19.380Z,16.70
2017-10-08T15:53:47.679Z,16.70
2017-10-08T15:56:15.933Z,16.70
2017-10-08T15:58:44.176Z,16.70
2017-10-08T16:01:12.516Z,16.60
2017-10-08T16:03:40.801Z,16.60
2017-10-08T16:06:09.075Z,16.60
2017-10-08T16:08:37.458Z,16.50
2017-10-08T16:11:05.720Z,16.40
2017-10-08T16:13:34.113Z,16.40
2017-10-08T16:16:02.358Z,16.40
2017-10-08T16:18:31.388Z,16.50
2017-10-08T16:20:59.679Z,16.40
2017-10-08T16:23:27.945Z,16.40
2017-10-08T16:25:56.201Z,16.40
2017-10-08T16:28:24.447Z,16.30
2017-10-08T16:30:52.695Z,16.40
2017-10-08T16:33:21.002Z,16.30
2017-10-08T16:35:49.275Z,16.30
2017-10-08T16:38:17.540Z,16.30
2017-10-08T16:40:45.831Z,16.30
2017-10-08T16:43:14.107Z,16.30
2017-10-08T16:45:42.354Z,16.20
2017-10-08T16:48:11.385Z,16.00
2017-10-08T16:50:39.619Z,16.00
2017-10-08T16:53:07.962Z,15.90
2017-10-08T16:55:36.205Z,16.00
2017-10-08T16:58:05.226Z,15.90
2017-10-08T17:00:33.518Z,15.80
2017-10-08T17:03:01.802Z,15.80
2017-10-08T17:05:30.039Z,15.80
2017-10-08T17:07:59.078Z,15.80
2017-10-08T17:10:27.366Z,15.80
2017-10-08T17:12:55.648Z,15.70
2017-10-08T17:15:23.895Z,15.70
2017-10-08T17:17:52.174Z,15.70
2017-10-08T17:20:21.269Z,15.60
2017-10-08T17:22:50.282Z,15.60
2017-10-08T17:25:18.587Z,15.60
2017-10-08T17:27:46.833Z,15.60
2017-10-08T17:30:15.863Z,15.60
2017-10-08T17:32:44.109Z,15.50
2017-10-08T17:35:13.243Z,15.50
2017-10-08T17:37:41.514Z,15.50
2017-10-08T17:40:09.817Z,15.50
2017-10-08T17:42:38.054Z,15.50
2017-10-08T17:45:07.191Z,15.50
2017-10-08T17:47:35.431Z,15.50
2017-10-08T17:50:04.466Z,15.50
2017-10-08T17:52:32.706Z,15.50
2017-10-08T17:55:01.734Z,15.40
2017-10-08T17:57:30.743Z,15.40
2017-10-08T17:59:59.000Z,15.40
2017-10-08T18:02:27.302Z,15.20
2017-10-08T18:04:56.407Z,15.30
2017-10-08T18:07:24.641Z,15.30
2017-10-08T18:09:53.681Z,15.30
2017-10-08T18:12:21.919Z,15.20
2017-10-08T18:14:50.174Z,15.20
2017-10-08T18:17:18.426Z,15.20
2017-10-08T18:19:46.693Z,15.20
2017-10-08T18:22:14.926Z,15.20
2017-10-08T18:24:43.191Z,15.20
2017-10-08T18:27:11.423Z,15.20
2017-10-08T18:29:40.474Z,15.10
2017-10-08T18:32:08.702Z,15.10
2017-10-08T18:34:37.702Z,15.10
2017-10-08T18:37:05.962Z,15.10
2017-10-08T18:39:35.482Z,15.10
2017-10-08T18:42:04.498Z,15.10
2017-10-08T18:44:32.737Z,15.00
2017-10-08T18:47:00.994Z,15.10
2017-10-08T18:49:29.232Z,15.00
2017-10-08T18:51:58.268Z,15.10
2017-10-08T18:54:26.510Z,15.00
2017-10-08T18:56:55.531Z,15.00
2017-10-08T18:59:23.857Z,15.00
2017-10-08T19:01:52.103Z,15.00
2017-10-08T19:04:20.347Z,15.00
2017-10-08T19:06:49.384Z,15.00
2017-10-08T19:09:17.654Z,15.00
2017-10-08T19:11:45.951Z,15.10
2017-10-08T19:14:14.221Z,15.10
2017-10-08T19:16:42.486Z,15.10
2017-10-08T19:19:11.491Z,15.10
2017-10-08T19:21:39.751Z,15.10
2017-10-08T19:24:08.756Z,15.10
2017-10-08T19:26:37.790Z,15.10
2017-10-08T19:29:06.043Z,15.10
2017-10-08T19:31:35.064Z,15.10
2017-10-08T19:34:03.297Z,15.10
2017-10-08T19:36:32.318Z,15.10
2017-10-08T19:39:00.561Z,15.10
2017-10-08T19:41:30.338Z,15.10
2017-10-08T19:43:58.616Z,15.10
2017-10-08T19:46:26.854Z,15.10
2017-10-08T19:48:55.181Z,15.10
2017-10-08T19:51:23.424Z,15.10
2017-10-08T19:53:52.439Z,15.10
2017-10-08T19:56:20.674Z,15.10
2017-10-08T19:58:48.928Z,15.10
2017-10-08T20:01:17.165Z,15.10
2017-10-08T20:03:46.183Z,15.20
2017-10-08T20:06:14.427Z,15.10
2017-10-08T20:08:42.681Z,15.20
2017-10-08T20:11:10.938Z,15.10
2017-10-08T20:13:39.198Z,15.20
2017-10-08T20:16:07.447Z,15.10
2017-10-08T20:18:36.469Z,15.10
2017-10-08T20:21:05.522Z,15.10
2017-10-08T20:23:33.778Z,15.10
2017-10-08T20:26:02.060Z,15.20
2017-10-08T20:28:30.313Z,15.20
2017-10-08T20:30:59.322Z,15.10
2017-10-08T20:33:28.444Z,15.10
2017-10-08T20:35:56.726Z,15.10
2017-10-08T20:38:25.127Z,15.10
2017-10-08T20:40:53.379Z,15.10
2017-10-08T20:43:21.675Z,15.10
2017-10-08T20:45:49.948Z,15.10
2017-10-08T20:48:18.182Z,15.00
2017-10-08T20:50:47.225Z,15.00
2017-10-08T20:53:15.471Z,14.90
2017-10-08T20:55:44.959Z,15.00
2017-10-08T20:58:13.200Z,14.90
2017-10-08T21:00:41.475Z,15.00
2017-10-08T21:03:09.719Z,14.90
2017-10-08T21:05:37.980Z,14.90
2017-10-08T21:08:06.218Z,14.90
2017-10-08T21:10:34.471Z,14.80
2017-10-08T21:13:03.490Z,14.70
2017-10-08T21:15:31.979Z,14.70
2017-10-08T21:18:00.267Z,14.70
2017-10-08T21:20:28.545Z,14.60
2017-10-08T21:22:56.798Z,14.60
2017-10-08T21:25:25.822Z,14.50
2017-10-08T21:27:54.058Z,14.50
2017-10-08T21:30:23.083Z,14.40
2017-10-08T21:32:51.323Z,14.40
2017-10-08T21:35:20.382Z,14.30
2017-10-08T21:37:48.661Z,14.30
2017-10-08T21:40:16.914Z,14.30
2017-10-08T21:42:45.932Z,14.20
2017-10-08T21:45:14.189Z,14.20
2017-10-08T21:47:43.194Z,14.10
2017-10-08T21:50:12.234Z,14.00
2017-10-08T21:52:40.475Z,14.00
2017-10-08T21:55:09.473Z,13.90
2017-10-08T21:57:37.734Z,13.90
2017-10-08T22:00:06.743Z,13.80
2017-10-08T22:02:35.768Z,13.70
2017-10-08T22:05:04.155Z,13.70
2017-10-08T22:07:32.415Z,13.70
2017-10-08T22:10:00.722Z,13.60
2017-10-08T22:12:28.997Z,13.50
2017-10-08T22:14:57.248Z,13.50
2017-10-08T22:17:26.287Z,13.40
2017-10-08T22:19:54.517Z,13.40
2017-10-08T22:22:23.547Z,13.30
2017-10-08T22:24:51.837Z,13.30
2017-10-08T22:27:20.096Z,13.30
2017-10-08T22:29:49.107Z,13.20
2017-10-08T22:32:17.362Z,13.10
2017-10-08T22:34:47.183Z,13.00
2017-10-08T22:37:16.443Z,13.00
2017-10-08T22:39:44.665Z,13.00
2017-10-08T22:42:13.710Z,12.90
2017-10-08T22:44:41.952Z,12.90
2017-10-08T22:47:10.969Z,12.80
2017-10-08T22:49:39.220Z,12.80
2017-10-08T22:52:08.265Z,12.70
2017-10-08T22:54:36.500Z,12.70
2017-10-08T22:57:05.513Z,12.70
2017-10-08T22:59:33.761Z,12.70
2017-10-08T23:02:02.103Z,12.60
2017-10-08T23:04:30.352Z,12.60
2017-10-08T23:06:59.363Z,12.60
2017-10-08T23:09:27.628Z,12.60
2017-10-08T23:11:56.634Z,12.50
2017-10-08T23:14:25.667Z,12.50
2017-10-08T23:16:53.945Z,12.50
2017-10-08T23:19:22.215Z,12.50
2017-10-08T23:21:50.510Z,12.50
2017-10-08T23:24:18.762Z,12.40
2017-10-08T23:26:47.063Z,12.40
2017-10-08T23:29:15.386Z,12.40
2017-10-08T23:31:43.637Z,12.30
2017-10-08T23:34:11.921Z,12.30
2017-10-08T23:36:40.209Z,12.30
2017-10-08T23:39:08.586Z,12.30
2017-10-08T23:41:42.544Z,12.30
2017-10-08T23:44:11.573Z,12.20
2017-10-08T23:46:39.858Z,12.20
2017-10-08T23:49:08.118Z,12.20
2017-10-08T23:51:37.122Z,12.20
2017-10-08T23:54:05.400Z,12.20
2017-10-08T23:56:34.410Z,12.10
2017-10-08T23:59:02.711Z,12.10
